createdAt,value
2023-03-18T00:02:01.737Z,100166.31
2023-03-18T00:07:03.416Z,100172.47
2023-03-18T00:12:06.487Z,100170.78
2023-03-18T00:17:09.809Z,100167.38
2023-03-18T00:22:11.671Z,100174.38
2023-03-18T00:27:14.001Z,100163.91
2023-03-18T00:32:17.295Z,100162.16
2023-03-18T00:37:30.230Z,100158.75
2023-03-18T00:42:38.841Z,100162.41
2023-03-18T00:47:42.198Z,100166.03
2023-03-18T00:52:44.067Z,100177.38
2023-03-18T00:57:46.143Z,100174.72
2023-03-18T01:02:49.622Z,100174.66
2023-03-18T01:07:51.855Z,100188.56
2023-03-18T01:12:55.331Z,100191.97
2023-03-18T01:17:59.608Z,100199.78
2023-03-18T01:23:01.388Z,100198.91
2023-03-18T01:28:03.961Z,100206.78
2023-03-18T01:33:09.750Z,100190.19
2023-03-18T01:38:12.394Z,100200.63
2023-03-18T01:43:15.027Z,100176.28
2023-03-18T01:48:19.877Z,100187.75
2023-03-18T01:53:22.054Z,100186.03
2023-03-18T01:58:25.590Z,100187.78
2023-03-18T02:03:28.735Z,100183.34
2023-03-18T02:08:30.522Z,100197.28
2023-03-18T02:13:35.683Z,100191.16
2023-03-18T02:18:41.674Z,100207.72
2023-03-18T02:23:47.396Z,100209.44
2023-03-18T02:28:50.982Z,100201.59
2023-03-18T02:33:52.862Z,100204.19
2023-03-18T02:38:54.559Z,100201.56
2023-03-18T02:44:01.337Z,100213.72
2023-03-18T02:49:08.581Z,100219.81
2023-03-18T02:54:12.756Z,100220.69
2023-03-18T02:59:15.961Z,100224.16
2023-03-18T03:04:17.699Z,100223.25
2023-03-18T03:09:19.919Z,100223.22
2023-03-18T03:14:23.132Z,100230.19
2023-03-18T03:19:29.302Z,100231.97
2023-03-18T03:24:31.097Z,100236.28
2023-03-18T03:29:34.144Z,100249.38
2023-03-18T03:34:35.820Z,100245.03
2023-03-18T03:39:37.515Z,100245.06
2023-03-18T03:44:40.923Z,100250.31
2023-03-18T03:49:43.558Z,100264.28
2023-03-18T03:54:45.614Z,100263.38
2023-03-18T03:59:48.611Z,100271.22
2023-03-18T04:04:53.647Z,100267.69
2023-03-18T04:10:06.443Z,100268.59
2023-03-18T04:15:10.494Z,100274.69
2023-03-18T04:20:13.056Z,100275.59
2023-03-18T04:25:15.025Z,100277.34
2023-03-18T04:30:20.263Z,100280.88
2023-03-18T04:35:35.062Z,100278.28
2023-03-18T04:40:37.330Z,100284.38
2023-03-18T04:45:40.445Z,100287.00
2023-03-18T04:50:43.513Z,100294.91
2023-03-18T04:55:49.822Z,100286.19
2023-03-18T05:00:54.685Z,100291.47
2023-03-18T05:06:01.523Z,100296.72
2023-03-18T05:11:13.507Z,100294.97
2023-03-18T05:16:17.048Z,100283.66
2023-03-18T05:21:21.453Z,100292.41
2023-03-18T05:26:24.638Z,100295.91
2023-03-18T05:31:27.939Z,100293.22
2023-03-18T05:36:29.829Z,100298.50
2023-03-18T05:41:37.383Z,100306.31
2023-03-18T05:46:43.707Z,100296.72
2023-03-18T05:51:52.167Z,100294.16
2023-03-18T05:57:07.375Z,100286.28
2023-03-18T06:02:11.702Z,100285.38
2023-03-18T06:07:13.531Z,100289.72
2023-03-18T06:12:15.689Z,100298.41
2023-03-18T06:17:19.326Z,100305.41
2023-03-18T06:22:21.034Z,100302.69
2023-03-18T06:27:23.334Z,100312.22
2023-03-18T06:32:31.602Z,100307.81
2023-03-18T06:37:33.910Z,100303.38
2023-03-18T06:42:35.835Z,100318.09
2023-03-18T06:47:45.007Z,100318.31
2023-03-18T06:52:47.989Z,100307.94
2023-03-18T06:57:53.084Z,100322.44
2023-03-18T07:03:01.429Z,100314.16
2023-03-18T07:08:04.495Z,100325.03
2023-03-18T07:13:06.229Z,100331.56
2023-03-18T07:18:11.984Z,100345.97
2023-03-18T07:23:14.108Z,100352.03
2023-03-18T07:28:16.267Z,100359.03
2023-03-18T07:33:20.057Z,100363.94
2023-03-18T07:38:21.795Z,100366.09
2023-03-18T07:43:23.630Z,100378.78
2023-03-18T07:48:26.694Z,100384.81
2023-03-18T07:53:28.468Z,100390.28
2023-03-18T07:58:30.306Z,100396.38
2023-03-18T08:03:33.845Z,100390.25
2023-03-18T08:08:35.622Z,100390.91
2023-03-18T08:13:38.376Z,100391.06
2023-03-18T08:18:42.030Z,100398.38
2023-03-18T08:23:43.818Z,100413.44
2023-03-18T08:28:45.719Z,100417.31
2023-03-18T08:33:51.811Z,100412.25
2023-03-18T08:38:53.705Z,100414.41
2023-03-18T08:43:57.304Z,100415.03
2023-03-18T08:49:00.566Z,100420.59
2023-03-18T08:54:02.257Z,100425.88
2023-03-18T08:59:03.998Z,100417.88
2023-03-18T09:04:06.992Z,100418.72
2023-03-18T09:09:08.841Z,100427.13
2023-03-18T09:14:10.529Z,100436.66
2023-03-18T09:19:13.734Z,100441.81
2023-03-18T09:24:15.602Z,100442.31
2023-03-18T09:29:17.302Z,100444.91
2023-03-18T09:34:20.308Z,100445.31
2023-03-18T09:39:22.009Z,100443.75
2023-03-18T09:44:24.384Z,100449.38
2023-03-18T09:49:49.510Z,100450.31
2023-03-18T09:54:56.398Z,100458.69
2023-03-18T10:00:00.457Z,100458.84
2023-03-18T10:05:04.699Z,100460.97
2023-03-18T10:10:07.731Z,100460.13
2023-03-18T10:15:16.277Z,100467.69
2023-03-18T10:20:20.525Z,100478.03
2023-03-18T10:25:25.783Z,100478.59
2023-03-18T10:30:34.083Z,100481.63
2023-03-18T10:35:39.034Z,100475.41
2023-03-18T10:40:41.304Z,100467.81
2023-03-18T10:45:43.004Z,100466.31
2023-03-18T10:50:47.287Z,100475.81
2023-03-18T10:55:54.909Z,100479.38
2023-03-18T11:00:59.020Z,100478.28
2023-03-18T11:06:04.311Z,100485.47
2023-03-18T11:11:20.963Z,100476.88
2023-03-18T11:16:31.693Z,100486.31
2023-03-18T11:21:34.735Z,100482.09
2023-03-18T11:26:47.833Z,100489.03
2023-03-18T11:31:51.901Z,100479.78
2023-03-18T11:36:58.889Z,100485.31
2023-03-18T11:42:00.724Z,100486.09
2023-03-18T11:47:04.664Z,100485.63
2023-03-18T11:52:15.432Z,100484.69
2023-03-18T11:57:19.714Z,100482.38
2023-03-18T12:02:34.212Z,100483.44
2023-03-18T12:07:47.459Z,100483.72
2023-03-18T12:13:05.455Z,100484.28
2023-03-18T12:18:11.946Z,100488.34
2023-03-18T12:23:26.061Z,100480.19
2023-03-18T12:28:32.819Z,100478.22
2023-03-18T12:33:42.946Z,100487.09
2023-03-18T12:39:04.082Z,100486.22
2023-03-18T12:44:12.111Z,100486.72
2023-03-18T12:49:16.074Z,100495.38
2023-03-18T12:54:21.510Z,100483.16
2023-03-18T12:59:27.666Z,100481.53
2023-03-18T13:04:30.292Z,100476.47
2023-03-18T13:09:35.933Z,100470.97
2023-03-18T13:14:48.171Z,100474.44
2023-03-18T13:19:50.152Z,100477.44
2023-03-18T13:25:08.613Z,100477.91
2023-03-18T13:30:16.273Z,100472.06
2023-03-18T13:35:33.314Z,100470.94
2023-03-18T13:40:45.100Z,100463.84
2023-03-18T13:45:47.322Z,100479.66
2023-03-18T13:50:50.609Z,100485.28
2023-03-18T13:56:00.645Z,100480.44
2023-03-18T14:01:16.117Z,100479.50
2023-03-18T14:06:24.822Z,100480.34
2023-03-18T14:11:50.087Z,100482.94
2023-03-18T14:16:52.322Z,100475.66
2023-03-18T14:21:55.066Z,100475.34
2023-03-18T14:27:13.122Z,100470.38
2023-03-18T14:32:31.057Z,100472.34
2023-03-18T14:37:33.959Z,100473.91
2023-03-18T14:42:45.669Z,100463.00
2023-03-18T14:47:50.812Z,100462.69
2023-03-18T14:52:55.272Z,100470.09
2023-03-18T14:57:58.328Z,100463.59
2023-03-18T15:03:01.462Z,100462.25
2023-03-18T15:08:06.888Z,100464.38
2023-03-18T15:13:13.133Z,100463.53
2023-03-18T15:18:20.172Z,100467.22
2023-03-18T15:23:27.046Z,100466.34
2023-03-18T15:28:30.218Z,100467.31
2023-03-18T15:33:35.044Z,100464.75
2023-03-18T15:38:36.916Z,100482.41
2023-03-18T15:43:41.912Z,100474.88
2023-03-18T15:48:44.549Z,100479.53
2023-03-18T15:53:47.849Z,100474.59
2023-03-18T15:58:58.795Z,100476.50
2023-03-18T16:04:00.629Z,100464.22
2023-03-18T16:09:13.714Z,100474.72
2023-03-18T16:14:17.406Z,100470.78
2023-03-18T16:19:24.787Z,100479.63
2023-03-18T16:24:26.993Z,100484.28
2023-03-18T16:29:30.851Z,100485.50
2023-03-18T16:34:33.380Z,100482.34
2023-03-18T16:39:35.089Z,100491.50
2023-03-18T16:44:38.136Z,100502.19
2023-03-18T16:49:40.422Z,100497.13
2023-03-18T16:54:42.826Z,100502.66
2023-03-18T16:59:47.888Z,100500.16
2023-03-18T17:04:49.613Z,100509.16
2023-03-18T17:09:51.991Z,100499.47
2023-03-18T17:15:00.370Z,100513.72
2023-03-18T17:20:16.438Z,100511.31
2023-03-18T17:25:20.271Z,100514.97
2023-03-18T17:30:34.085Z,100516.00
2023-03-18T17:35:37.101Z,100526.41
2023-03-18T17:40:40.869Z,100537.09
2023-03-18T17:45:46.697Z,100540.28
2023-03-18T17:50:49.607Z,100539.81
2023-03-18T17:55:51.850Z,100549.75
2023-03-18T18:00:55.543Z,100546.44
2023-03-18T18:05:58.357Z,100542.31
2023-03-18T18:11:04.387Z,100547.13
2023-03-18T18:16:07.977Z,100543.78
2023-03-18T18:21:11.834Z,100535.16
2023-03-18T18:26:14.730Z,100532.66
2023-03-18T18:31:19.437Z,100536.31
2023-03-18T18:36:21.352Z,100543.56
2023-03-18T18:41:23.048Z,100548.81
2023-03-18T18:46:26.427Z,100545.41
2023-03-18T18:51:28.278Z,100547.22
2023-03-18T18:56:32.113Z,100541.09
2023-03-18T19:01:35.126Z,100547.22
2023-03-18T19:06:37.642Z,100552.59
2023-03-18T19:11:39.538Z,100546.56
2023-03-18T19:16:43.389Z,100545.81
2023-03-18T19:21:45.122Z,100541.50
2023-03-18T19:26:46.872Z,100548.53
2023-03-18T19:31:50.249Z,100552.00
2023-03-18T19:36:53.264Z,100565.19
2023-03-18T19:41:55.626Z,100572.19
2023-03-18T19:47:00.967Z,100573.13
2023-03-18T19:52:03.590Z,100574.00
2023-03-18T19:57:06.646Z,100573.09
2023-03-18T20:02:18.373Z,100576.59
2023-03-18T20:07:21.465Z,100575.75
2023-03-18T20:12:24.469Z,100577.47
2023-03-18T20:17:33.430Z,100580.97
2023-03-18T20:22:36.699Z,100587.03
2023-03-18T20:27:38.407Z,100580.06
2023-03-18T20:32:43.922Z,100576.59
2023-03-18T20:37:46.364Z,100572.25
2023-03-18T20:42:48.173Z,100570.50
2023-03-18T20:47:51.254Z,100579.22
2023-03-18T20:52:53.367Z,100584.47
2023-03-18T20:57:55.202Z,100583.59
2023-03-18T21:02:58.614Z,100594.91
2023-03-18T21:08:00.392Z,100587.06
2023-03-18T21:13:02.436Z,100587.91
2023-03-18T21:18:05.653Z,100587.94
2023-03-18T21:23:17.151Z,100586.19
2023-03-18T21:28:19.728Z,100594.03
2023-03-18T21:33:24.429Z,100599.28
2023-03-18T21:38:27.024Z,100608.88
2023-03-18T21:43:30.819Z,100607.13
2023-03-18T21:48:34.090Z,100624.56
2023-03-18T21:53:35.777Z,100626.28
2023-03-18T21:58:37.519Z,100603.59
2023-03-18T22:03:40.595Z,100587.94
2023-03-18T22:08:42.589Z,100601.03
2023-03-18T22:13:44.479Z,100577.47
2023-03-18T22:18:47.976Z,100588.81
2023-03-18T22:23:49.764Z,100586.19
2023-03-18T22:28:51.540Z,100585.31
2023-03-18T22:33:54.685Z,100582.69
2023-03-18T22:38:56.391Z,100579.19
2023-03-18T22:43:59.876Z,100581.81
2023-03-18T22:49:07.984Z,100586.16
2023-03-18T22:54:13.038Z,100583.56
2023-03-18T22:59:14.806Z,100591.41
2023-03-18T23:04:19.595Z,100628.91
2023-03-18T23:09:21.473Z,100626.28
2023-03-18T23:14:23.225Z,100596.63
2023-03-18T23:19:26.299Z,100604.50
2023-03-18T23:24:28.009Z,100593.16
2023-03-18T23:29:29.716Z,100600.13
2023-03-18T23:34:32.767Z,100594.91
2023-03-18T23:39:34.484Z,100593.19
2023-03-18T23:44:36.195Z,100587.94
2023-03-18T23:49:39.702Z,100580.97
2023-03-18T23:54:41.504Z,100580.06
2023-03-18T23:59:43.259Z,100584.47
